sensor_id;sensor_type;location;lat;lon;timestamp;pressure;altitude;pressure_sealevel;temperature;humidity
64336;BME280;50672;53.362;-6.240;2022-09-01T00:02:47;102593.47;;;17.25;67.86
64336;BME280;50672;53.362;-6.240;2022-09-01T00:06:30;102587.09;;;17.16;67.54
64336;BME280;50672;53.362;-6.240;2022-09-01T00:09:56;102587.28;;;17.06;67.92
64336;BME280;50672;53.362;-6.240;2022-09-01T00:13:22;102582.47;;;17.00;67.67
64336;BME280;50672;53.362;-6.240;2022-09-01T00:17:16;102583.50;;;16.99;68.11
64336;BME280;50672;53.362;-6.240;2022-09-01T00:20:22;102580.91;;;17.06;68.07
64336;BME280;50672;53.362;-6.240;2022-09-01T00:23:16;102580.56;;;17.09;68.22
64336;BME280;50672;53.362;-6.240;2022-09-01T00:27:00;102575.41;;;17.14;68.27
64336;BME280;50672;53.362;-6.240;2022-09-01T02:32:15;102508.81;;;17.19;71.13
64336;BME280;50672;53.362;-6.240;2022-09-01T02:34:44;102507.97;;;17.18;71.37
64336;BME280;50672;53.362;-6.240;2022-09-01T02:37:20;102512.78;;;17.16;71.20
64336;BME280;50672;53.362;-6.240;2022-09-01T02:39:51;102509.19;;;17.16;71.51
64336;BME280;50672;53.362;-6.240;2022-09-01T02:42:18;102502.84;;;17.15;71.12
64336;BME280;50672;53.362;-6.240;2022-09-01T02:44:53;102512.97;;;17.15;71.36
64336;BME280;50672;53.362;-6.240;2022-09-01T02:47:22;102514.69;;;17.16;71.62
64336;BME280;50672;53.362;-6.240;2022-09-01T02:49:50;102504.72;;;17.15;71.63
64336;BME280;50672;53.362;-6.240;2022-09-01T02:52:17;102509.38;;;17.14;71.61
64336;BME280;50672;53.362;-6.240;2022-09-01T02:54:46;102506.63;;;17.14;71.67
64336;BME280;50672;53.362;-6.240;2022-09-01T02:57:16;102510.22;;;17.15;71.49
64336;BME280;50672;53.362;-6.240;2022-09-01T02:59:43;102504.72;;;17.15;71.50
64336;BME280;50672;53.362;-6.240;2022-09-01T03:02:09;102508.34;;;17.15;71.77
64336;BME280;50672;53.362;-6.240;2022-09-01T03:04:36;102511.28;;;17.14;71.45
64336;BME280;50672;53.362;-6.240;2022-09-01T03:07:05;102509.53;;;17.13;71.67
64336;BME280;50672;53.362;-6.240;2022-09-01T03:09:32;102509.72;;;17.11;71.84
64336;BME280;50672;53.362;-6.240;2022-09-01T03:12:00;102508.84;;;17.11;71.55
64336;BME280;50672;53.362;-6.240;2022-09-01T03:14:32;102498.03;;;17.09;71.87
64336;BME280;50672;53.362;-6.240;2022-09-01T03:16:59;102502.69;;;17.08;71.78
64336;BME280;50672;53.362;-6.240;2022-09-01T03:19:26;102495.63;;;17.06;71.73
64336;BME280;50672;53.362;-6.240;2022-09-01T03:22:02;102501.31;;;17.04;71.67
64336;BME280;50672;53.362;-6.240;2022-09-01T03:24:29;102496.84;;;17.03;71.35
64336;BME280;50672;53.362;-6.240;2022-09-01T03:26:56;102492.38;;;17.02;71.40
64336;BME280;50672;53.362;-6.240;2022-09-01T03:29:29;102497.00;;;17.02;71.29
64336;BME280;50672;53.362;-6.240;2022-09-01T03:31:56;102485.16;;;17.01;71.07
64336;BME280;50672;53.362;-6.240;2022-09-01T03:34:23;102491.69;;;17.00;71.35
64336;BME280;50672;53.362;-6.240;2022-09-01T03:36:51;102493.78;;;16.98;70.78
64336;BME280;50672;53.362;-6.240;2022-09-01T03:39:18;102484.16;;;16.94;71.23
64336;BME280;50672;53.362;-6.240;2022-09-01T03:41:44;102487.94;;;16.93;70.83
64336;BME280;50672;53.362;-6.240;2022-09-01T03:44:13;102484.47;;;16.91;70.76
64336;BME280;50672;53.362;-6.240;2022-09-01T03:46:42;102481.91;;;16.89;70.99
64336;BME280;50672;53.362;-6.240;2022-09-01T03:49:09;102484.66;;;16.89;70.96
64336;BME280;50672;53.362;-6.240;2022-09-01T03:51:42;102485.53;;;16.90;70.58
64336;BME280;50672;53.362;-6.240;2022-09-01T03:54:11;102486.56;;;16.89;70.66
64336;BME280;50672;53.362;-6.240;2022-09-01T03:56:38;102484.81;;;16.88;70.40
64336;BME280;50672;53.362;-6.240;2022-09-01T03:59:08;102481.06;;;16.89;70.73
64336;BME280;50672;53.362;-6.240;2022-09-01T04:01:43;102477.56;;;16.87;70.51
64336;BME280;50672;53.362;-6.240;2022-09-01T04:04:17;102479.47;;;16.86;70.85
64336;BME280;50672;53.362;-6.240;2022-09-01T04:06:45;102479.47;;;16.86;70.98
64336;BME280;50672;53.362;-6.240;2022-09-01T04:09:12;102475.00;;;16.85;70.48
64336;BME280;50672;53.362;-6.240;2022-09-01T04:11:39;102477.94;;;16.84;70.40
64336;BME280;50672;53.362;-6.240;2022-09-01T04:14:12;102476.22;;;16.83;70.54
64336;BME280;50672;53.362;-6.240;2022-09-01T04:16:39;102462.81;;;16.80;70.80
64336;BME280;50672;53.362;-6.240;2022-09-01T04:19:34;102460.41;;;16.77;70.56
64336;BME280;50672;53.362;-6.240;2022-09-01T04:22:02;102463.69;;;16.72;71.15
64336;BME280;50672;53.362;-6.240;2022-09-01T04:24:31;102456.31;;;16.64;70.99
64336;BME280;50672;53.362;-6.240;2022-09-01T04:27:10;102454.94;;;16.60;70.91
64336;BME280;50672;53.362;-6.240;2022-09-01T04:29:46;102459.94;;;16.56;71.07
64336;BME280;50672;53.362;-6.240;2022-09-01T04:32:26;102456.50;;;16.54;71.40
64336;BME280;50672;53.362;-6.240;2022-09-01T04:34:53;102460.25;;;16.53;71.50
64336;BME280;50672;53.362;-6.240;2022-09-01T04:37:22;102453.91;;;16.53;71.41
64336;BME280;50672;53.362;-6.240;2022-09-01T04:39:53;102449.63;;;16.50;71.24
64336;BME280;50672;53.362;-6.240;2022-09-01T04:42:25;102456.31;;;16.48;71.63
64336;BME280;50672;53.362;-6.240;2022-09-01T04:44:53;102451.19;;;16.45;71.51
64336;BME280;50672;53.362;-6.240;2022-09-01T04:47:22;102460.44;;;16.44;71.85
64336;BME280;50672;53.362;-6.240;2022-09-01T04:50:01;102458.94;;;16.41;71.38
64336;BME280;50672;53.362;-6.240;2022-09-01T04:52:29;102454.63;;;16.38;71.88
64336;BME280;50672;53.362;-6.240;2022-09-01T04:55:04;102454.81;;;16.37;71.50
64336;BME280;50672;53.362;-6.240;2022-09-01T04:57:34;102457.72;;;16.35;71.68
64336;BME280;50672;53.362;-6.240;2022-09-01T05:00:02;102459.94;;;16.32;72.05
64336;BME280;50672;53.362;-6.240;2022-09-01T05:02:36;102465.63;;;16.30;71.79
64336;BME280;50672;53.362;-6.240;2022-09-01T05:05:05;102459.25;;;16.30;71.86
64336;BME280;50672;53.362;-6.240;2022-09-01T05:07:38;102456.69;;;16.28;72.04
64336;BME280;50672;53.362;-6.240;2022-09-01T05:10:05;102459.59;;;16.27;72.19
64336;BME280;50672;53.362;-6.240;2022-09-01T05:12:32;102461.66;;;16.25;72.03
64336;BME280;50672;53.362;-6.240;2022-09-01T05:14:59;102457.91;;;16.26;72.48
64336;BME280;50672;53.362;-6.240;2022-09-01T05:17:29;102457.03;;;16.25;72.23
64336;BME280;50672;53.362;-6.240;2022-09-01T05:19:56;102455.47;;;16.31;72.37
64336;BME280;50672;53.362;-6.240;2022-09-01T05:22:23;102464.41;;;16.33;72.74
64336;BME280;50672;53.362;-6.240;2022-09-01T05:24:58;102454.09;;;16.35;72.68
64336;BME280;50672;53.362;-6.240;2022-09-01T05:27:30;102462.69;;;16.40;72.57
64336;BME280;50672;53.362;-6.240;2022-09-01T05:29:57;102464.25;;;16.43;72.85
64336;BME280;50672;53.362;-6.240;2022-09-01T05:32:34;102475.06;;;16.44;72.40
64336;BME280;50672;53.362;-6.240;2022-09-01T05:35:03;102471.97;;;16.47;72.52
64336;BME280;50672;53.362;-6.240;2022-09-01T05:37:40;102464.56;;;16.48;72.40
64336;BME280;50672;53.362;-6.240;2022-09-01T05:40:08;102467.31;;;16.48;72.28
64336;BME280;50672;53.362;-6.240;2022-09-01T05:42:48;102461.81;;;16.48;72.52
64336;BME280;50672;53.362;-6.240;2022-09-01T05:45:15;102464.91;;;16.45;72.69
64336;BME280;50672;53.362;-6.240;2022-09-01T05:47:45;102465.94;;;16.44;72.71
64336;BME280;50672;53.362;-6.240;2022-09-01T05:50:14;102466.81;;;16.44;72.44
64336;BME280;50672;53.362;-6.240;2022-09-01T05:52:41;102464.25;;;16.43;72.50
64336;BME280;50672;53.362;-6.240;2022-09-01T05:55:11;102462.53;;;16.42;72.82
64336;BME280;50672;53.362;-6.240;2022-09-01T05:57:52;102459.06;;;16.39;72.92
64336;BME280;50672;53.362;-6.240;2022-09-01T06:00:19;102460.47;;;16.35;72.95
64336;BME280;50672;53.362;-6.240;2022-09-01T06:02:53;102459.78;;;16.33;73.00
64336;BME280;50672;53.362;-6.240;2022-09-01T06:05:43;102455.31;;;16.32;72.67
64336;BME280;50672;53.362;-6.240;2022-09-01T06:12:51;102458.56;;;16.36;72.68
64336;BME280;50672;53.362;-6.240;2022-09-01T06:16:13;102458.06;;;16.40;72.65
64336;BME280;50672;53.362;-6.240;2022-09-01T06:19:39;102458.56;;;16.44;72.72
64336;BME280;50672;53.362;-6.240;2022-09-01T06:23:33;102462.53;;;16.50;72.50
64336;BME280;50672;53.362;-6.240;2022-09-01T06:27:06;102461.16;;;16.54;72.79
64336;BME280;50672;53.362;-6.240;2022-09-01T06:34:16;102462.84;;;16.63;72.65
64336;BME280;50672;53.362;-6.240;2022-09-01T06:37:59;102463.53;;;16.73;72.64
64336;BME280;50672;53.362;-6.240;2022-09-01T06:41:25;102463.50;;;16.82;72.97
64336;BME280;50672;53.362;-6.240;2022-09-01T06:44:58;102462.47;;;16.91;72.86
64336;BME280;50672;53.362;-6.240;2022-09-01T06:48:24;102474.19;;;16.93;72.91
64336;BME280;50672;53.362;-6.240;2022-09-01T06:51:22;102466.59;;;16.95;73.03
64336;BME280;50672;53.362;-6.240;2022-09-01T06:54:48;102464.19;;;16.92;73.14
64336;BME280;50672;53.362;-6.240;2022-09-01T06:58:17;102469.53;;;16.94;73.12
64336;BME280;50672;53.362;-6.240;2022-09-01T07:01:44;102461.78;;;16.97;72.99
64336;BME280;50672;53.362;-6.240;2022-09-01T07:04:55;102465.53;;;17.04;73.12
64336;BME280;50672;53.362;-6.240;2022-09-01T07:12:35;102468.59;;;17.18;73.09
64336;BME280;50672;53.362;-6.240;2022-09-01T07:16:02;102466.91;;;17.08;72.83
64336;BME280;50672;53.362;-6.240;2022-09-01T09:38:23;102426.19;;;20.57;60.64
64336;BME280;50672;53.362;-6.240;2022-09-01T09:41:15;102416.56;;;20.81;60.04
64336;BME280;50672;53.362;-6.240;2022-09-01T09:43:56;102415.63;;;20.96;59.79
64336;BME280;50672;53.362;-6.240;2022-09-01T09:46:39;102405.66;;;21.08;59.64
64336;BME280;50672;53.362;-6.240;2022-09-01T09:51:42;102413.88;;;21.43;58.94
64336;BME280;50672;53.362;-6.240;2022-09-01T09:54:24;102424.97;;;21.43;58.70
64336;BME280;50672;53.362;-6.240;2022-09-01T09:57:21;102414.97;;;21.42;58.15
64336;BME280;50672;53.362;-6.240;2022-09-01T10:02:34;102405.31;;;21.87;57.50
64336;BME280;50672;53.362;-6.240;2022-09-01T10:08:05;102394.03;;;22.22;56.93
64336;BME280;50672;53.362;-6.240;2022-09-01T10:10:49;102398.28;;;22.31;56.58
64336;BME280;50672;53.362;-6.240;2022-09-01T10:13:25;102401.50;;;22.48;56.38
64336;BME280;50672;53.362;-6.240;2022-09-01T10:15:55;102389.78;;;22.59;55.97
64336;BME280;50672;53.362;-6.240;2022-09-01T10:18:28;102391.44;;;22.60;55.57
64336;BME280;50672;53.362;-6.240;2022-09-01T10:20:56;102395.72;;;22.63;55.16
64336;BME280;50672;53.362;-6.240;2022-09-01T10:23:28;102397.38;;;22.77;55.07
64336;BME280;50672;53.362;-6.240;2022-09-01T10:26:04;102395.47;;;22.84;54.67
64336;BME280;50672;53.362;-6.240;2022-09-01T10:29:05;102394.38;;;22.92;54.69
64336;BME280;50672;53.362;-6.240;2022-09-01T10:31:33;102396.44;;;23.10;54.21
64336;BME280;50672;53.362;-6.240;2022-09-01T10:34:02;102381.50;;;23.11;53.95
64336;BME280;50672;53.362;-6.240;2022-09-01T10:36:32;102382.28;;;23.32;53.62
64336;BME280;50672;53.362;-6.240;2022-09-01T10:39:01;102385.50;;;23.29;53.27
64336;BME280;50672;53.362;-6.240;2022-09-01T10:41:53;102384.63;;;23.35;53.12
64336;BME280;50672;53.362;-6.240;2022-09-01T10:47:00;102385.03;;;22.73;52.62
64336;BME280;50672;53.362;-6.240;2022-09-01T10:51:58;102385.81;;;22.94;52.57
64336;BME280;50672;53.362;-6.240;2022-09-01T10:59:53;102378.38;;;23.78;51.77
64336;BME280;50672;53.362;-6.240;2022-09-01T11:02:24;102375.13;;;23.88;51.20
64336;BME280;50672;53.362;-6.240;2022-09-01T11:15:49;102358.34;;;24.27;49.94
64336;BME280;50672;53.362;-6.240;2022-09-01T11:18:25;102366.00;;;24.75;49.77
64336;BME280;50672;53.362;-6.240;2022-09-01T11:20:53;102353.72;;;25.32;49.09
64336;BME280;50672;53.362;-6.240;2022-09-01T11:23:25;102352.31;;;25.71;48.62
64336;BME280;50672;53.362;-6.240;2022-09-01T11:26:00;102350.09;;;26.16;48.09
64336;BME280;50672;53.362;-6.240;2022-09-01T11:28:46;102349.38;;;26.80;47.35
64336;BME280;50672;53.362;-6.240;2022-09-01T11:42:38;102350.13;;;27.44;44.26
64336;BME280;50672;53.362;-6.240;2022-09-01T11:44:57;102358.66;;;26.97;44.10
64336;BME280;50672;53.362;-6.240;2022-09-01T11:47:39;102347.09;;;27.05;43.85
64336;BME280;50672;53.362;-6.240;2022-09-01T11:50:22;102338.03;;;27.56;43.46
64336;BME280;50672;53.362;-6.240;2022-09-01T11:52:58;102339.41;;;28.38;43.07
64336;BME280;50672;53.362;-6.240;2022-09-01T11:58:03;102338.06;;;28.80;41.42
64336;BME280;50672;53.362;-6.240;2022-09-01T12:00:36;102335.44;;;29.18;41.06
64336;BME280;50672;53.362;-6.240;2022-09-01T12:03:18;102328.97;;;29.17;40.77
64336;BME280;50672;53.362;-6.240;2022-09-01T12:05:48;102334.03;;;29.70;40.32
64336;BME280;50672;53.362;-6.240;2022-09-01T12:08:17;102329.38;;;30.18;39.65
64336;BME280;50672;53.362;-6.240;2022-09-01T12:10:49;102329.03;;;30.47;39.27
64336;BME280;50672;53.362;-6.240;2022-09-01T12:13:22;102326.09;;;29.61;38.67
64336;BME280;50672;53.362;-6.240;2022-09-01T12:15:54;102327.63;;;28.97;38.64
64336;BME280;50672;53.362;-6.240;2022-09-01T12:18:49;102325.69;;;29.80;38.51
64336;BME280;50672;53.362;-6.240;2022-09-01T12:24:14;102325.63;;;30.02;37.94
64336;BME280;50672;53.362;-6.240;2022-09-01T12:26:42;102320.34;;;31.12;37.14
64336;BME280;50672;53.362;-6.240;2022-09-01T12:29:11;102313.09;;;31.52;36.41
64336;BME280;50672;53.362;-6.240;2022-09-01T12:31:43;102318.16;;;31.50;36.02
64336;BME280;50672;53.362;-6.240;2022-09-01T12:37:17;102319.72;;;32.80;34.68
64336;BME280;50672;53.362;-6.240;2022-09-01T12:39:56;102306.81;;;33.63;33.89
64336;BME280;50672;53.362;-6.240;2022-09-01T12:45:06;102301.69;;;33.31;32.21
64336;BME280;50672;53.362;-6.240;2022-09-01T12:52:35;102296.97;;;31.06;32.77
64336;BME280;50672;53.362;-6.240;2022-09-01T12:55:17;102296.56;;;30.77;33.09
64336;BME280;50672;53.362;-6.240;2022-09-01T12:58:06;102280.44;;;31.35;32.50
64336;BME280;50672;53.362;-6.240;2022-09-01T13:00:58;102297.63;;;32.16;32.75
64336;BME280;50672;53.362;-6.240;2022-09-01T13:03:26;102295.56;;;33.13;32.38
64336;BME280;50672;53.362;-6.240;2022-09-01T13:05:57;102282.81;;;34.24;31.48
64336;BME280;50672;53.362;-6.240;2022-09-01T13:08:29;102294.09;;;34.97;31.01
64336;BME280;50672;53.362;-6.240;2022-09-01T13:11:05;102270.91;;;35.33;29.97
64336;BME280;50672;53.362;-6.240;2022-09-01T13:13:34;102281.63;;;35.88;29.56
64336;BME280;50672;53.362;-6.240;2022-09-01T13:16:02;102270.09;;;36.13;29.37
64336;BME280;50672;53.362;-6.240;2022-09-01T13:18:39;102277.25;;;35.44;28.65
64336;BME280;50672;53.362;-6.240;2022-09-01T13:21:27;102266.47;;;35.27;28.65
64336;BME280;50672;53.362;-6.240;2022-09-01T13:23:54;102273.22;;;34.50;28.74
64336;BME280;50672;53.362;-6.240;2022-09-01T13:26:21;102267.88;;;33.20;29.54
64336;BME280;50672;53.362;-6.240;2022-09-01T13:28:49;102269.47;;;31.55;29.84
64336;BME280;50672;53.362;-6.240;2022-09-01T13:31:17;102267.88;;;30.70;30.94
64336;BME280;50672;53.362;-6.240;2022-09-01T13:34:01;102265.66;;;30.77;31.24
64336;BME280;50672;53.362;-6.240;2022-09-01T13:36:46;102268.72;;;30.17;31.78
64336;BME280;50672;53.362;-6.240;2022-09-01T13:39:18;102263.03;;;31.59;31.33
64336;BME280;50672;53.362;-6.240;2022-09-01T13:41:46;102251.16;;;32.09;31.45
64336;BME280;50672;53.362;-6.240;2022-09-01T13:44:13;102270.16;;;32.63;31.00
64336;BME280;50672;53.362;-6.240;2022-09-01T13:46:42;102252.44;;;33.82;30.34
64336;BME280;50672;53.362;-6.240;2022-09-01T13:49:26;102250.34;;;34.89;29.62
64336;BME280;50672;53.362;-6.240;2022-09-01T13:52:13;102246.69;;;36.21;28.55
64336;BME280;50672;53.362;-6.240;2022-09-01T13:54:39;102256.28;;;37.26;27.89
64336;BME280;50672;53.362;-6.240;2022-09-01T13:57:07;102251.59;;;37.67;26.76
64336;BME280;50672;53.362;-6.240;2022-09-01T13:59:34;102242.50;;;38.19;26.03
64336;BME280;50672;53.362;-6.240;2022-09-01T14:02:01;102234.69;;;37.93;25.30
64336;BME280;50672;53.362;-6.240;2022-09-01T14:04:28;102241.00;;;36.07;25.34
64336;BME280;50672;53.362;-6.240;2022-09-01T14:06:55;102245.31;;;36.18;25.67
64336;BME280;50672;53.362;-6.240;2022-09-01T14:09:24;102233.00;;;34.96;25.50
64336;BME280;50672;53.362;-6.240;2022-09-01T14:11:52;102221.16;;;36.21;25.50
64336;BME280;50672;53.362;-6.240;2022-09-01T14:14:20;102219.31;;;34.60;25.76
64336;BME280;50672;53.362;-6.240;2022-09-01T14:16:46;102224.97;;;35.69;25.87
64336;BME280;50672;53.362;-6.240;2022-09-01T14:19:14;102231.19;;;37.33;25.54
64336;BME280;50672;53.362;-6.240;2022-09-01T14:21:41;102223.13;;;35.79;25.11
64336;BME280;50672;53.362;-6.240;2022-09-01T14:24:08;102220.84;;;37.01;24.94
64336;BME280;50672;53.362;-6.240;2022-09-01T14:26:35;102208.41;;;37.56;24.21
64336;BME280;50672;53.362;-6.240;2022-09-01T14:29:02;102200.56;;;38.33;23.61
64336;BME280;50672;53.362;-6.240;2022-09-01T14:31:28;102197.16;;;39.15;23.66
64336;BME280;50672;53.362;-6.240;2022-09-01T14:33:56;102195.41;;;39.96;23.01
64336;BME280;50672;53.362;-6.240;2022-09-01T14:36:24;102195.13;;;40.28;22.10
64336;BME280;50672;53.362;-6.240;2022-09-01T14:38:52;102197.03;;;40.87;21.92
64336;BME280;50672;53.362;-6.240;2022-09-01T14:41:21;102185.31;;;37.80;21.93
64336;BME280;50672;53.362;-6.240;2022-09-01T14:43:53;102179.56;;;34.70;22.88
64336;BME280;50672;53.362;-6.240;2022-09-01T14:46:24;102185.44;;;33.87;23.50
64336;BME280;50672;53.362;-6.240;2022-09-01T14:48:51;102193.72;;;33.10;24.39
64336;BME280;50672;53.362;-6.240;2022-09-01T14:51:23;102192.13;;;32.98;24.77
64336;BME280;50672;53.362;-6.240;2022-09-01T14:53:52;102203.25;;;32.09;25.79
64336;BME280;50672;53.362;-6.240;2022-09-01T14:56:19;102181.84;;;30.68;26.45
64336;BME280;50672;53.362;-6.240;2022-09-01T14:58:47;102197.16;;;30.35;27.16
64336;BME280;50672;53.362;-6.240;2022-09-01T15:01:16;102181.78;;;29.52;28.12
64336;BME280;50672;53.362;-6.240;2022-09-01T15:03:59;102194.50;;;28.51;29.05
64336;BME280;50672;53.362;-6.240;2022-09-01T15:06:26;102184.47;;;28.33;29.96
64336;BME280;50672;53.362;-6.240;2022-09-01T15:08:53;102177.22;;;27.75;30.73
64336;BME280;50672;53.362;-6.240;2022-09-01T15:11:20;102183.88;;;26.89;31.65
64336;BME280;50672;53.362;-6.240;2022-09-01T15:13:48;102179.47;;;26.24;33.08
64336;BME280;50672;53.362;-6.240;2022-09-01T15:16:20;102173.81;;;25.71;33.57
64336;BME280;50672;53.362;-6.240;2022-09-01T15:18:48;102193.34;;;26.88;34.12
64336;BME280;50672;53.362;-6.240;2022-09-01T15:21:26;102176.41;;;28.14;34.06
64336;BME280;50672;53.362;-6.240;2022-09-01T15:23:54;102183.56;;;30.11;33.33
64336;BME280;50672;53.362;-6.240;2022-09-01T15:26:21;102172.38;;;29.31;32.96
64336;BME280;50672;53.362;-6.240;2022-09-01T15:28:48;102164.34;;;28.36;33.38
64336;BME280;50672;53.362;-6.240;2022-09-01T15:31:18;102156.22;;;27.73;33.77
64336;BME280;50672;53.362;-6.240;2022-09-01T15:33:59;102158.81;;;28.19;34.15
64336;BME280;50672;53.362;-6.240;2022-09-01T15:36:28;102161.59;;;28.41;34.03
64336;BME280;50672;53.362;-6.240;2022-09-01T15:38:56;102150.22;;;27.86;34.08
64336;BME280;50672;53.362;-6.240;2022-09-01T15:41:28;102144.19;;;28.61;33.98
64336;BME280;50672;53.362;-6.240;2022-09-01T15:43:56;102139.94;;;28.80;33.86
64336;BME280;50672;53.362;-6.240;2022-09-01T15:46:24;102148.31;;;29.78;33.59
64336;BME280;50672;53.362;-6.240;2022-09-01T15:48:59;102147.84;;;32.54;32.43
64336;BME280;50672;53.362;-6.240;2022-09-01T15:51:31;102142.28;;;34.06;31.37
64336;BME280;50672;53.362;-6.240;2022-09-01T15:54:02;102153.59;;;32.33;30.74
64336;BME280;50672;53.362;-6.240;2022-09-01T15:56:30;102148.38;;;34.56;30.11
64336;BME280;50672;53.362;-6.240;2022-09-01T15:58:58;102129.97;;;34.78;29.37
64336;BME280;50672;53.362;-6.240;2022-09-01T16:01:29;102122.44;;;32.59;29.19
64336;BME280;50672;53.362;-6.240;2022-09-01T16:03:56;102126.63;;;32.07;29.60
64336;BME280;50672;53.362;-6.240;2022-09-01T16:06:24;102120.00;;;31.72;30.00
64336;BME280;50672;53.362;-6.240;2022-09-01T16:08:52;102120.16;;;30.21;30.55
64336;BME280;50672;53.362;-6.240;2022-09-01T16:11:21;102115.41;;;29.25;31.33
64336;BME280;50672;53.362;-6.240;2022-09-01T16:13:49;102127.50;;;28.00;32.20
64336;BME280;50672;53.362;-6.240;2022-09-01T16:22:50;102110.13;;;25.21;35.79
64336;BME280;50672;53.362;-6.240;2022-09-01T16:25:03;102105.53;;;24.61;36.77
64336;BME280;50672;53.362;-6.240;2022-09-01T16:27:38;102117.94;;;24.28;37.69
64336;BME280;50672;53.362;-6.240;2022-09-01T16:30:12;102112.63;;;24.08;38.73
64336;BME280;50672;53.362;-6.240;2022-09-01T16:32:43;102108.50;;;23.73;39.47
64336;BME280;50672;53.362;-6.240;2022-09-01T16:35:10;102116.66;;;23.49;40.00
64336;BME280;50672;53.362;-6.240;2022-09-01T16:40:46;102110.25;;;23.49;41.33
64336;BME280;50672;53.362;-6.240;2022-09-01T16:43:27;102107.72;;;23.47;41.57
64336;BME280;50672;53.362;-6.240;2022-09-01T16:57:47;102100.06;;;22.85;43.94
64336;BME280;50672;53.362;-6.240;2022-09-01T17:00:24;102103.72;;;22.86;44.09
64336;BME280;50672;53.362;-6.240;2022-09-01T17:03:16;102096.22;;;22.86;44.44
64336;BME280;50672;53.362;-6.240;2022-09-01T17:05:54;102098.81;;;22.81;44.53
64336;BME280;50672;53.362;-6.240;2022-09-01T17:08:29;102098.44;;;22.78;44.84
64336;BME280;50672;53.362;-6.240;2022-09-01T17:11:09;102094.19;;;22.75;44.98
64336;BME280;50672;53.362;-6.240;2022-09-01T17:13:39;102110.84;;;22.75;45.02
64336;BME280;50672;53.362;-6.240;2022-09-01T17:16:40;102092.13;;;22.64;45.69
64336;BME280;50672;53.362;-6.240;2022-09-01T17:19:10;102093.16;;;22.69;45.63
64336;BME280;50672;53.362;-6.240;2022-09-01T17:22:03;102099.16;;;22.66;46.00
64336;BME280;50672;53.362;-6.240;2022-09-01T17:24:40;102090.88;;;22.60;46.33
64336;BME280;50672;53.362;-6.240;2022-09-01T17:29:52;102093.13;;;22.38;46.78
64336;BME280;50672;53.362;-6.240;2022-09-01T17:38:59;102099.25;;;22.01;47.48
64336;BME280;50672;53.362;-6.240;2022-09-01T17:41:39;102090.72;;;21.96;47.80
64336;BME280;50672;53.362;-6.240;2022-09-01T17:47:49;102084.84;;;21.72;48.00
64336;BME280;50672;53.362;-6.240;2022-09-01T17:55:47;102076.75;;;21.64;48.59
64336;BME280;50672;53.362;-6.240;2022-09-01T18:01:33;102077.56;;;21.78;48.50
64336;BME280;50672;53.362;-6.240;2022-09-01T18:04:22;102078.91;;;21.68;48.61
64336;BME280;50672;53.362;-6.240;2022-09-01T18:07:00;102075.09;;;21.63;48.43
64336;BME280;50672;53.362;-6.240;2022-09-01T18:09:45;102072.50;;;21.61;48.52
64336;BME280;50672;53.362;-6.240;2022-09-01T18:12:19;102074.66;;;21.53;48.33
64336;BME280;50672;53.362;-6.240;2022-09-01T18:15:03;102074.66;;;21.53;48.67
64336;BME280;50672;53.362;-6.240;2022-09-01T18:23:20;102073.38;;;21.42;48.73
64336;BME280;50672;53.362;-6.240;2022-09-01T18:25:54;102074.25;;;21.36;48.56
64336;BME280;50672;53.362;-6.240;2022-09-01T18:28:23;102072.53;;;21.34;48.45
64336;BME280;50672;53.362;-6.240;2022-09-01T18:31:00;102067.00;;;21.28;48.83
64336;BME280;50672;53.362;-6.240;2022-09-01T18:33:41;102066.59;;;21.24;48.73
64336;BME280;50672;53.362;-6.240;2022-09-01T18:36:31;102071.28;;;21.17;48.73
64336;BME280;50672;53.362;-6.240;2022-09-01T18:41:39;102066.59;;;21.04;49.10
64336;BME280;50672;53.362;-6.240;2022-09-01T18:44:27;102061.28;;;20.96;49.28
64336;BME280;50672;53.362;-6.240;2022-09-01T18:47:09;102061.91;;;20.91;49.27
64336;BME280;50672;53.362;-6.240;2022-09-01T18:55:42;102059.31;;;20.63;49.76
64336;BME280;50672;53.362;-6.240;2022-09-01T19:00:57;102055.03;;;20.54;49.67
64336;BME280;50672;53.362;-6.240;2022-09-01T19:03:33;102057.34;;;20.43;49.94
64336;BME280;50672;53.362;-6.240;2022-09-01T19:06:07;102054.56;;;20.30;50.19
64336;BME280;50672;53.362;-6.240;2022-09-01T19:08:47;102053.06;;;20.21;50.19
64336;BME280;50672;53.362;-6.240;2022-09-01T19:21:59;102051.72;;;20.03;51.13
64336;BME280;50672;53.362;-6.240;2022-09-01T19:24:35;102056.19;;;20.04;51.07
64336;BME280;50672;53.362;-6.240;2022-09-01T19:27:10;102056.59;;;20.08;51.50
64336;BME280;50672;53.362;-6.240;2022-09-01T19:29:50;102058.09;;;20.10;51.58
64336;BME280;50672;53.362;-6.240;2022-09-01T19:32:20;102059.81;;;20.11;51.55
64336;BME280;50672;53.362;-6.240;2022-09-01T19:35:04;102056.41;;;20.03;51.93
64336;BME280;50672;53.362;-6.240;2022-09-01T19:37:32;102057.63;;;19.93;51.98
64336;BME280;50672;53.362;-6.240;2022-09-01T19:40:00;102062.22;;;19.79;52.04
64336;BME280;50672;53.362;-6.240;2022-09-01T19:48:31;102064.03;;;19.66;52.59
64336;BME280;50672;53.362;-6.240;2022-09-01T19:50:47;102066.84;;;19.72;52.83
64336;BME280;50672;53.362;-6.240;2022-09-01T19:53:23;102070.06;;;19.76;52.94
64336;BME280;50672;53.362;-6.240;2022-09-01T19:56:09;102055.13;;;19.70;53.09
64336;BME280;50672;53.362;-6.240;2022-09-01T20:01:45;102064.50;;;19.69;53.31
64336;BME280;50672;53.362;-6.240;2022-09-01T20:07:11;102064.50;;;19.69;53.74
64336;BME280;50672;53.362;-6.240;2022-09-01T20:10:14;102061.50;;;19.64;54.00
64336;BME280;50672;53.362;-6.240;2022-09-01T20:12:53;102062.16;;;19.73;54.09
64336;BME280;50672;53.362;-6.240;2022-09-01T20:15:35;102064.34;;;19.77;54.07
64336;BME280;50672;53.362;-6.240;2022-09-01T20:18:09;102057.09;;;19.76;54.21
64336;BME280;50672;53.362;-6.240;2022-09-01T20:20:46;102059.06;;;19.83;53.90
64336;BME280;50672;53.362;-6.240;2022-09-01T20:25:58;102060.91;;;19.75;54.25
64336;BME280;50672;53.362;-6.240;2022-09-01T20:28:43;102061.97;;;19.74;54.63